Time,TemperatureF,DewpointF,PressureIn,WindDirection,WindDirectionDegrees,WindSpeedMPH,WindSpeedGustMPH,Humidity,HourlyPrecipIn,Conditions,Clouds,dailyrainin,SolarRadiationWatts/m^2,SoftwareType,DateUTC
2013-06-23 00:00:00,82.5,74.2,30.11,SE,132,5.0,6.0,76,0.00,,CLR,0.12,0.00,VWS V14.01,2013-06-23 04:00:00,
2013-06-23 00:01:00,82.5,74.2,30.11,North,360,7.0,8.0,76,0.00,,FEW031,0.00,0.00,VWS V14.01,2013-06-23 04:01:00,
2013-06-23 00:05:00,82.6,74.7,30.11,South,186,6.0,7.0,77,0.00,,CLR,0.00,0.00,VWS V14.01,2013-06-23 04:05:00,
2013-06-23 00:06:00,82.6,74.7,30.11,SE,128,2.0,5.0,77,0.00,,FEW031,0.00,0.00,VWS V14.01,2013-06-23 04:06:00,
2013-06-23 00:10:00,82.6,74.7,30.11,ENE,71,2.0,3.0,77,0.00,,CLR,0.00,0.00,VWS V14.01,2013-06-23 04:10:00,
2013-06-23 00:11:00,82.6,75.1,30.11,SSE,155,2.0,5.0,78,0.00,,FEW031,0.00,0.00,VWS V14.01,2013-06-23 04:11:00,
2013-06-23 00:15:00,82.6,75.1,30.11,SSE,166,5.0,6.0,78,0.00,,CLR,0.00,0.00,VWS V14.01,2013-06-23 04:15:00,
2013-06-23 00:16:00,82.5,74.9,30.11,SSE,165,2.0,6.0,78,0.00,,FEW031,0.00,0.00,VWS V14.01,2013-06-23 04:16:00,
2013-06-23 00:20:00,82.5,74.9,30.11,SSW,201,3.0,3.0,78,0.00,,CLR,0.00,0.00,VWS V14.01,2013-06-23 04:20:00,
2013-06-23 00:21:00,82.3,74.8,30.10,SSE,165,2.0,4.0,78,0.00,,FEW031,0.00,0.00,VWS V14.01,2013-06-23 04:21:00,
2013-06-23 00:25:00,82.3,74.8,30.10,SE,136,1.0,4.0,78,0.00,,CLR,0.00,0.00,VWS V14.01,2013-06-23 04:25:00,
2013-06-23 00:26:00,82.1,74.6,30.10,SSE,150,2.0,5.0,78,0.00,,FEW031,0.00,0.00,VWS V14.01,2013-06-23 04:26:00,
2013-06-23 00:30:00,82.1,74.6,30.10,SSE,159,2.0,3.0,78,0.00,,CLR,0.00,0.00,VWS V14.01,2013-06-23 04:30:00,
2013-06-23 00:31:00,82.0,74.5,30.10,ESE,109,3.0,7.0,78,0.00,,FEW031,0.00,0.00,VWS V14.01,2013-06-23 04:31:00,
2013-06-23 00:35:00,81.9,74.4,30.10,SE,132,4.0,7.0,78,0.00,,CLR,0.00,0.00,VWS V14.01,2013-06-23 04:35:00,
2013-06-23 00:37:00,82.0,74.5,30.10,SE,134,4.0,5.0,78,0.00,,BKN038,0.00,0.00,VWS V14.01,2013-06-23 04:37:00,
2013-06-23 00:40:00,82.0,74.5,30.10,SE,135,2.0,6.0,78,0.00,,CLR,0.00,0.00,VWS V14.01,2013-06-23 04:40:00,
2013-06-23 00:42:00,81.9,74.4,30.10,ENE,65,3.0,8.0,78,0.00,,BKN038,0.00,0.00,VWS V14.01,2013-06-23 04:42:00,
2013-06-23 00:45:00,81.9,74.4,30.10,SSE,159,1.0,3.0,78,0.00,,CLR,0.00,0.00,VWS V14.01,2013-06-23 04:45:00,
2013-06-23 00:47:00,81.9,74.4,30.11,SSE,157,0.0,2.0,78,0.00,,BKN038,0.00,0.00,VWS V14.01,2013-06-23 04:47:00,
2013-06-23 00:50:00,81.9,74.4,30.11,SSE,152,0.0,3.0,78,0.00,,CLR,0.00,0.00,VWS V14.01,2013-06-23 04:50:00,
2013-06-23 00:52:00,81.9,74.8,30.11,NE,52,2.0,3.0,79,0.00,,BKN038,0.00,0.00,VWS V14.01,2013-06-23 04:52:00,
2013-06-23 00:55:00,81.9,74.8,30.11,ESE,108,1.0,4.0,79,0.00,,CLR,0.00,0.00,VWS V14.01,2013-06-23 04:55:00,
2013-06-23 00:57:00,81.9,74.8,30.10,East,97,6.0,7.0,79,0.00,,BKN038,0.00,0.00,VWS V14.01,2013-06-23 04:57:00,
2013-06-23 01:00:00,81.8,74.3,30.11,ESE,117,3.0,3.0,78,0.00,,CLR,0.00,0.00,VWS V14.01,2013-06-23 05:00:00,
2013-06-23 01:02:00,81.7,73.8,30.11,ENE,69,2.0,3.0,77,0.00,,BKN038,0.00,0.00,VWS V14.01,2013-06-23 05:02:00,
2013-06-23 01:05:00,81.6,73.7,30.10,East,86,1.0,2.0,77,0.00,,CLR,0.00,0.00,VWS V14.01,2013-06-23 05:05:00,
2013-06-23 01:07:00,81.5,73.6,30.10,NE,52,1.0,3.0,77,0.00,,BKN038,0.00,0.00,VWS V14.01,2013-06-23 05:07:00,
2013-06-23 01:10:00,81.4,73.5,30.10,NE,48,3.0,3.0,77,0.00,,CLR,0.00,0.00,VWS V14.01,2013-06-23 05:10:00,
2013-06-23 01:12:00,81.2,72.9,30.10,NE,40,3.0,3.0,76,0.00,,BKN038,0.00,0.00,VWS V14.01,2013-06-23 05:12:00,
2013-06-23 01:15:00,81.1,72.8,30.10,NE,38,1.0,4.0,76,0.00,,CLR,0.00,0.00,VWS V14.01,2013-06-23 05:15:00,
2013-06-23 01:17:00,80.9,72.2,30.10,NE,38,0.0,1.0,75,0.00,,BKN038,0.00,0.00,VWS V14.01,2013-06-23 05:17:00,
2013-06-23 01:20:00,80.8,72.1,30.10,NE,38,0.0,0.0,75,0.00,,CLR,0.00,0.00,VWS V14.01,2013-06-23 05:20:00,
2013-06-23 01:22:00,80.6,72.3,30.10,NE,38,0.0,1.0,76,0.00,,BKN038,0.00,0.00,VWS V14.01,2013-06-23 05:22:00,
2013-06-23 01:25:00,80.5,72.2,30.09,NE,38,1.0,1.0,76,0.00,,CLR,0.00,0.00,VWS V14.01,2013-06-23 05:25:00,
2013-06-23 01:27:00,80.5,72.2,30.09,NE,38,2.0,3.0,76,0.00,,BKN038,0.00,0.00,VWS V14.01,2013-06-23 05:27:00,
2013-06-23 01:30:00,80.4,72.2,30.09,NE,38,2.0,2.0,76,0.00,,CLR,0.00,0.00,VWS V14.01,2013-06-23 05:30:00,
2013-06-23 01:32:00,80.4,72.5,30.09,NNE,30,1.0,2.0,77,0.00,,BKN038,0.00,0.00,VWS V14.01,2013-06-23 05:32:00,
2013-06-23 01:35:00,80.3,72.1,30.09,NNE,30,1.0,2.0,76,0.00,,CLR,0.00,0.00,VWS V14.01,2013-06-23 05:35:00,
2013-06-23 01:37:00,80.2,72.3,30.08,NE,40,1.0,2.0,77,0.00,,BKN038,0.00,0.00,VWS V14.01,2013-06-23 05:37:00,
2013-06-23 01:40:00,80.2,72.7,30.08,ESE,122,2.0,3.0,78,0.00,,CLR,0.00,0.00,VWS V14.01,2013-06-23 05:40:00,
2013-06-23 01:42:00,80.2,72.7,30.08,ESE,119,0.0,0.0,78,0.00,,SCT027,0.00,0.00,VWS V14.01,2013-06-23 05:42:00,
2013-06-23 01:45:00,80.2,73.1,30.08,ESE,115,1.0,3.0,79,0.00,,CLR,0.00,0.00,VWS V14.01,2013-06-23 05:45:00,
2013-06-23 01:46:00,80.2,73.1,30.08,ESE,117,0.0,2.0,79,0.00,,SCT027,0.00,0.00,VWS V14.01,2013-06-23 05:46:00,
2013-06-23 01:50:00,80.2,73.1,30.08,ESE,115,1.0,2.0,79,0.00,,CLR,0.00,0.00,VWS V14.01,2013-06-23 05:50:00,
2013-06-23 01:51:00,80.2,73.1,30.08,ESE,117,2.0,2.0,79,0.00,,SCT027,0.00,0.00,VWS V14.01,2013-06-23 05:51:00,
2013-06-23 01:55:00,80.2,73.1,30.08,SE,128,0.0,3.0,79,0.00,,CLR,0.00,0.00,VWS V14.01,2013-06-23 05:55:00,
2013-06-23 01:56:00,80.3,73.6,30.08,SE,128,0.0,0.0,80,0.00,,SCT027,0.00,0.00,VWS V14.01,2013-06-23 05:56:00,
2013-06-23 02:00:00,80.2,73.5,30.08,SE,132,1.0,2.0,80,0.00,,CLR,0.00,0.00,VWS V14.01,2013-06-23 06:00:00,
2013-06-23 02:01:00,80.3,73.6,30.08,SE,132,0.0,3.0,80,0.00,,SCT027,0.00,0.00,VWS V14.01,2013-06-23 06:01:00,
2013-06-23 02:05:00,80.3,73.6,30.08,SE,131,1.0,2.0,80,0.00,,CLR,0.00,0.00,VWS V14.01,2013-06-23 06:05:00,
2013-06-23 02:06:00,80.3,73.6,30.07,SE,131,0.0,1.0,80,0.00,,SCT027,0.00,0.00,VWS V14.01,2013-06-23 06:06:00,
2013-06-23 02:10:00,80.3,73.9,30.07,SE,131,0.0,0.0,81,0.00,,CLR,0.00,0.00,VWS V14.01,2013-06-23 06:10:00,
2013-06-23 02:11:00,80.2,73.8,30.07,SE,134,0.0,3.0,81,0.00,,SCT027,0.00,0.00,VWS V14.01,2013-06-23 06:11:00,
2013-06-23 02:15:00,80.3,73.9,30.07,SE,128,0.0,2.0,81,0.00,,CLR,0.00,0.00,VWS V14.01,2013-06-23 06:15:00,
2013-06-23 02:16:00,80.3,73.9,30.07,SE,130,0.0,0.0,81,0.00,,SCT027,0.00,0.00,VWS V14.01,2013-06-23 06:16:00,
2013-06-23 02:20:00,80.3,73.9,30.07,SE,133,0.0,1.0,81,0.00,,CLR,0.00,0.00,VWS V14.01,2013-06-23 06:20:00,
2013-06-23 02:21:00,80.3,73.9,30.07,SE,133,0.0,0.0,81,0.00,,SCT027,0.00,0.00,VWS V14.01,2013-06-23 06:21:00,
2013-06-23 02:25:00,80.3,73.9,30.07,SSE,154,2.0,3.0,81,0.00,,CLR,0.00,0.00,VWS V14.01,2013-06-23 06:25:00,
2013-06-23 02:26:00,80.2,73.8,30.07,SE,133,0.0,2.0,81,0.00,,SCT027,0.00,0.00,VWS V14.01,2013-06-23 06:26:00,
2013-06-23 02:30:00,80.3,73.9,30.07,SE,134,2.0,2.0,81,0.00,,CLR,0.00,0.00,VWS V14.01,2013-06-23 06:30:00,
2013-06-23 02:31:00,80.3,73.9,30.07,SSE,156,1.0,4.0,81,0.00,,SCT027,0.00,0.00,VWS V14.01,2013-06-23 06:31:00,
2013-06-23 02:35:00,80.4,74.0,30.07,SSE,151,0.0,0.0,81,0.00,,CLR,0.00,0.00,VWS V14.01,2013-06-23 06:35:00,
2013-06-23 02:36:00,80.4,74.0,30.07,SSE,159,3.0,3.0,81,0.00,,CLR,0.00,0.00,VWS V14.01,2013-06-23 06:36:00,
2013-06-23 02:40:00,80.5,74.1,30.07,SSE,155,1.0,2.0,81,0.00,,CLR,0.00,0.00,VWS V14.01,2013-06-23 06:40:00,
2013-06-23 02:41:00,80.6,74.2,30.07,SSE,156,0.0,2.0,81,0.00,,CLR,0.00,0.00,VWS V14.01,2013-06-23 06:41:00,
2013-06-23 02:45:00,80.6,74.2,30.07,SSE,156,0.0,2.0,81,0.00,,CLR,0.00,0.00,VWS V14.01,2013-06-23 06:45:00,
2013-06-23 02:46:00,80.7,74.3,30.07,SSE,156,0.0,1.0,81,0.00,,CLR,0.00,0.00,VWS V14.01,2013-06-23 06:46:00,
2013-06-23 02:50:00,80.6,74.2,30.06,SSE,165,2.0,3.0,81,0.00,,CLR,0.00,0.00,VWS V14.01,2013-06-23 06:50:00,
2013-06-23 02:51:00,80.6,74.2,30.07,South,169,1.0,2.0,81,0.00,,CLR,0.00,0.00,VWS V14.01,2013-06-23 06:51:00,
2013-06-23 02:55:00,80.7,74.3,30.07,SE,130,0.0,4.0,81,0.00,,CLR,0.00,0.00,VWS V14.01,2013-06-23 06:55:00,
2013-06-23 02:56:00,80.7,74.3,30.07,South,170,3.0,4.0,81,0.00,,CLR,0.00,0.00,VWS V14.01,2013-06-23 06:56:00,
2013-06-23 03:00:00,80.7,74.3,30.07,SE,127,0.0,3.0,81,0.00,,CLR,0.00,0.00,VWS V14.01,2013-06-23 07:00:00,
2013-06-23 03:01:00,80.7,74.3,30.06,SE,126,3.0,5.0,81,0.00,,CLR,0.00,0.00,VWS V14.01,2013-06-23 07:01:00,
2013-06-23 03:05:00,80.7,74.3,30.06,SE,131,3.0,3.0,81,0.00,,CLR,0.00,0.00,VWS V14.01,2013-06-23 07:05:00,
2013-06-23 03:06:00,80.8,74.4,30.06,SSE,159,1.0,5.0,81,0.00,,CLR,0.00,0.00,VWS V14.01,2013-06-23 07:06:00,
2013-06-23 03:10:00,80.9,74.5,30.06,SSE,154,2.0,3.0,81,0.00,,CLR,0.00,0.00,VWS V14.01,2013-06-23 07:10:00,
2013-06-23 03:11:00,80.9,74.5,30.06,SE,133,2.0,3.0,81,0.00,,CLR,0.00,0.00,VWS V14.01,2013-06-23 07:11:00,
2013-06-23 03:15:00,80.9,74.5,30.06,SE,134,1.0,3.0,81,0.00,,CLR,0.00,0.00,VWS V14.01,2013-06-23 07:15:00,
2013-06-23 03:16:00,80.9,74.5,30.07,SSE,159,2.0,7.0,81,0.00,,CLR,0.00,0.00,VWS V14.01,2013-06-23 07:16:00,
2013-06-23 03:20:00,80.9,74.5,30.06,SE,134,2.0,4.0,81,0.00,,CLR,0.00,0.00,VWS V14.01,2013-06-23 07:20:00,
2013-06-23 03:21:00,80.9,74.5,30.06,ENE,67,3.0,5.0,81,0.00,,CLR,0.00,0.00,VWS V14.01,2013-06-23 07:21:00,
2013-06-23 03:25:00,81.0,74.6,30.06,SE,133,5.0,5.0,81,0.00,,CLR,0.00,0.00,VWS V14.01,2013-06-23 07:25:00,
2013-06-23 03:26:00,81.0,74.6,30.06,SE,134,1.0,3.0,81,0.00,,CLR,0.00,0.00,VWS V14.01,2013-06-23 07:26:00,
2013-06-23 03:30:00,81.1,74.7,30.06,SSE,158,3.0,7.0,81,0.00,,CLR,0.00,0.00,VWS V14.01,2013-06-23 07:30:00,
2013-06-23 03:31:00,81.1,74.7,30.06,SSE,153,3.0,4.0,81,0.00,,CLR,0.00,0.00,VWS V14.01,2013-06-23 07:31:00,
2013-06-23 03:35:00,81.1,74.7,30.06,SSE,152,2.0,7.0,81,0.00,,CLR,0.00,0.00,VWS V14.01,2013-06-23 07:35:00,
2013-06-23 03:36:00,81.1,74.7,30.06,South,177,4.0,4.0,81,0.00,,CLR,0.00,0.00,VWS V14.01,2013-06-23 07:36:00,
2013-06-23 03:40:00,81.1,74.7,30.07,SSE,156,2.0,4.0,81,0.00,,CLR,0.00,0.00,VWS V14.01,2013-06-23 07:40:00,
2013-06-23 03:41:00,81.1,74.7,30.07,ENE,67,2.0,6.0,81,0.00,,CLR,0.00,0.00,VWS V14.01,2013-06-23 07:41:00,
2013-06-23 03:45:00,81.1,74.7,30.07,SE,128,2.0,8.0,81,0.00,,CLR,0.00,0.00,VWS V14.01,2013-06-23 07:45:00,
2013-06-23 03:46:00,81.1,74.7,30.07,ENE,71,2.0,7.0,81,0.00,,CLR,0.00,0.00,VWS V14.01,2013-06-23 07:46:00,
2013-06-23 03:50:00,81.1,74.7,30.07,SSE,154,2.0,9.0,81,0.00,,CLR,0.00,0.00,VWS V14.01,2013-06-23 07:50:00,
2013-06-23 03:51:00,81.1,74.7,30.07,South,184,2.0,4.0,81,0.00,,CLR,0.00,0.00,VWS V14.01,2013-06-23 07:51:00,
2013-06-23 03:55:00,81.1,74.7,30.07,South,174,2.0,5.0,81,0.00,,CLR,0.00,0.00,VWS V14.01,2013-06-23 07:55:00,
2013-06-23 03:56:00,81.0,74.6,30.07,South,174,1.0,2.0,81,0.00,,CLR,0.00,0.00,VWS V14.01,2013-06-23 07:56:00,
2013-06-23 04:00:00,81.1,74.3,30.07,SE,134,1.0,7.0,80,0.00,,CLR,0.00,0.00,VWS V14.01,2013-06-23 08:00:00,
2013-06-23 04:01:00,81.0,74.2,30.07,ESE,121,2.0,5.0,80,0.00,,CLR,0.00,0.00,VWS V14.01,2013-06-23 08:01:00,
2013-06-23 04:05:00,81.0,74.2,30.07,SSE,161,1.0,6.0,80,0.00,,CLR,0.00,0.00,VWS V14.01,2013-06-23 08:05:00,
2013-06-23 04:06:00,81.0,74.2,30.07,ESE,116,2.0,6.0,80,0.00,,CLR,0.00,0.00,VWS V14.01,2013-06-23 08:06:00,
2013-06-23 04:10:00,81.0,73.9,30.07,SE,136,1.0,4.0,79,0.00,,CLR,0.00,0.00,VWS V14.01,2013-06-23 08:10:00,
2013-06-23 04:11:00,81.0,73.9,30.07,SSE,155,1.0,2.0,79,0.00,,CLR,0.00,0.00,VWS V14.01,2013-06-23 08:11:00,
2013-06-23 04:15:00,81.0,73.9,30.07,SSE,155,1.0,2.0,79,0.00,,CLR,0.00,0.00,VWS V14.01,2013-06-23 08:15:00,
2013-06-23 04:16:00,81.0,73.9,30.07,SSE,155,1.0,2.0,79,0.00,,CLR,0.00,0.00,VWS V14.01,2013-06-23 08:16:00,
2013-06-23 04:20:00,80.9,73.8,30.07,SSE,153,0.0,2.0,79,0.00,,CLR,0.00,0.00,VWS V14.01,2013-06-23 08:20:00,
2013-06-23 04:21:00,80.9,73.8,30.06,SSE,153,1.0,2.0,79,0.00,,CLR,0.00,0.00,VWS V14.01,2013-06-23 08:21:00,
2013-06-23 04:25:00,80.8,73.7,30.06,SSE,153,0.0,0.0,79,0.00,,CLR,0.00,0.00,VWS V14.01,2013-06-23 08:25:00,
2013-06-23 04:30:00,80.7,74.0,30.06,SSE,153,0.0,1.0,80,0.00,,CLR,0.00,0.00,VWS V14.01,2013-06-23 08:30:00,
2013-06-23 04:31:00,80.7,74.0,30.07,SSE,153,0.0,0.0,80,0.00,,CLR,0.00,0.00,VWS V14.01,2013-06-23 08:31:00,
2013-06-23 04:35:00,80.6,73.9,30.06,SSE,153,0.0,0.0,80,0.00,,CLR,0.00,0.00,VWS V14.01,2013-06-23 08:35:00,
2013-06-23 04:36:00,80.5,73.8,30.06,SSE,158,4.0,4.0,80,0.00,,FEW025,0.00,0.00,VWS V14.01,2013-06-23 08:36:00,
2013-06-23 04:40:00,80.6,73.9,30.06,SSE,158,0.0,1.0,80,0.00,,FEW025,0.00,0.00,VWS V14.01,2013-06-23 08:40:00,
2013-06-23 04:45:00,80.6,74.2,30.06,SSE,158,0.0,0.0,81,0.00,,FEW025,0.00,0.00,VWS V14.01,2013-06-23 08:45:00,
2013-06-23 04:50:00,80.6,73.9,30.06,SSE,158,0.0,0.0,80,0.00,,FEW025,0.00,0.00,VWS V14.01,2013-06-23 08:50:00,
2013-06-23 04:55:00,80.7,74.0,30.06,SE,134,2.0,2.0,80,0.00,,FEW025,0.00,0.00,VWS V14.01,2013-06-23 08:55:00,
2013-06-23 05:00:00,80.7,74.3,30.06,ESE,122,1.0,2.0,81,0.00,,FEW025,0.00,0.00,VWS V14.01,2013-06-23 09:00:00,
2013-06-23 05:05:00,80.7,74.0,30.06,SE,134,4.0,4.0,80,0.00,,FEW025,0.00,0.00,VWS V14.01,2013-06-23 09:05:00,
2013-06-23 05:10:00,80.7,74.0,30.06,SSE,159,1.0,4.0,80,0.00,,FEW025,0.00,0.00,VWS V14.01,2013-06-23 09:10:00,
2013-06-23 05:15:00,80.7,74.3,30.06,SE,131,2.0,5.0,81,0.00,,FEW025,0.00,0.00,VWS V14.01,2013-06-23 09:15:00,
2013-06-23 05:20:00,80.7,74.3,30.06,SSE,159,2.0,4.0,81,0.00,,FEW025,0.00,0.00,VWS V14.01,2013-06-23 09:20:00,
2013-06-23 05:25:00,80.6,74.2,30.06,SE,146,1.0,3.0,81,0.00,,FEW025,0.00,0.00,VWS V14.01,2013-06-23 09:25:00,
2013-06-23 05:30:00,80.5,74.1,30.06,ESE,122,0.0,1.0,81,0.00,,FEW025,0.00,0.00,VWS V14.01,2013-06-23 09:30:00,
2013-06-23 05:35:00,80.3,74.3,30.06,ESE,122,0.0,1.0,82,0.00,,BKN065,0.00,0.00,VWS V14.01,2013-06-23 09:35:00,
2013-06-23 05:40:00,80.2,74.2,30.06,ESE,121,1.0,2.0,82,0.00,,BKN065,0.00,0.00,VWS V14.01,2013-06-23 09:40:00,
2013-06-23 05:45:00,80.0,74.4,30.06,ESE,114,0.0,0.0,83,0.00,,BKN065,0.00,0.00,VWS V14.01,2013-06-23 09:45:00,
2013-06-23 05:50:00,80.0,74.4,30.07,ENE,63,1.0,1.0,83,0.00,,BKN065,0.00,0.00,VWS V14.01,2013-06-23 09:50:00,
2013-06-23 05:55:00,80.1,74.5,30.06,SSE,153,4.0,5.0,83,0.00,,BKN065,0.00,0.00,VWS V14.01,2013-06-23 09:55:00,
2013-06-23 06:00:00,80.2,74.6,30.07,South,169,5.0,5.0,83,0.00,,BKN065,0.00,0.00,VWS V14.01,2013-06-23 10:00:00,
2013-06-23 06:05:00,80.0,73.7,30.07,SE,126,4.0,5.0,81,0.00,,BKN065,0.00,0.00,VWS V14.01,2013-06-23 10:05:00,
2013-06-23 06:10:00,79.9,73.2,30.07,SE,132,2.0,2.0,80,0.00,,BKN065,0.00,0.00,VWS V14.01,2013-06-23 10:10:00,
2013-06-23 06:15:00,79.9,73.2,30.07,SSE,148,1.0,2.0,80,0.00,,BKN065,0.00,0.00,VWS V14.01,2013-06-23 10:15:00,
2013-06-23 06:20:00,79.9,73.2,30.07,SE,128,1.0,1.0,80,0.00,,BKN065,0.00,0.00,VWS V14.01,2013-06-23 10:20:00,
2013-06-23 06:25:00,79.9,73.2,30.08,ESE,118,1.0,2.0,80,0.00,,BKN065,0.00,0.00,VWS V14.01,2013-06-23 10:25:00,
2013-06-23 06:30:00,79.9,73.6,30.08,ENE,73,4.0,4.0,81,0.00,,BKN065,0.00,7.00,VWS V14.01,2013-06-23 10:30:00,
2013-06-23 06:35:00,80.0,73.7,30.08,ENE,67,1.0,3.0,81,0.00,,SCT033,0.00,5.00,VWS V14.01,2013-06-23 10:35:00,
2013-06-23 06:40:00,80.0,74.0,30.08,ENE,63,1.0,1.0,82,0.00,,SCT033,0.00,7.00,VWS V14.01,2013-06-23 10:40:00,
2013-06-23 06:45:00,80.0,74.0,30.08,East,92,2.0,3.0,82,0.00,,SCT033,0.00,11.00,VWS V14.01,2013-06-23 10:45:00,
2013-06-23 06:50:00,79.6,72.1,30.08,South,172,3.0,9.0,78,0.00,,SCT033,0.00,21.00,VWS V14.01,2013-06-23 10:50:00,
2013-06-23 06:55:00,79.3,72.2,30.08,SSE,149,3.0,5.0,79,0.00,,SCT033,0.00,30.00,VWS V14.01,2013-06-23 10:55:00,
2013-06-23 07:00:00,78.9,71.8,30.08,SE,134,0.0,3.0,79,0.00,,SCT033,0.00,35.00,VWS V14.01,2013-06-23 11:00:00,
2013-06-23 07:05:00,78.6,72.3,30.08,South,179,0.0,0.0,81,0.00,,SCT033,0.00,39.00,VWS V14.01,2013-06-23 11:05:00,
2013-06-23 07:10:00,78.5,72.6,30.09,SSE,165,1.0,3.0,82,0.00,,SCT033,0.00,44.00,VWS V14.01,2013-06-23 11:10:00,
2013-06-23 07:15:00,78.6,73.4,30.09,SSE,158,2.0,4.0,84,0.00,,SCT033,0.00,53.00,VWS V14.01,2013-06-23 11:15:00,
2013-06-23 07:20:00,78.7,73.5,30.08,South,178,3.0,5.0,84,0.00,,SCT033,0.00,76.00,VWS V14.01,2013-06-23 11:20:00,
2013-06-23 07:25:00,79.0,73.8,30.08,SE,129,1.0,3.0,84,0.00,,SCT033,0.00,109.00,VWS V14.01,2013-06-23 11:25:00,
2013-06-23 07:30:00,79.4,74.2,30.09,SE,126,2.0,5.0,84,0.00,,SCT033,0.00,100.00,VWS V14.01,2013-06-23 11:30:00,
2013-06-23 07:35:00,79.6,74.0,30.08,NE,42,3.0,4.0,83,0.00,,BKN110,0.00,77.00,VWS V14.01,2013-06-23 11:35:00,
2013-06-23 07:40:00,79.6,74.0,30.09,East,93,3.0,3.0,83,0.00,,BKN110,0.00,102.00,VWS V14.01,2013-06-23 11:40:00,
2013-06-23 07:45:00,79.7,74.1,30.09,SE,134,5.0,5.0,83,0.00,,BKN110,0.00,69.00,VWS V14.01,2013-06-23 11:45:00,
2013-06-23 07:50:00,79.6,73.6,30.09,SE,127,3.0,8.0,82,0.01,,BKN110,0.01,139.00,VWS V14.01,2013-06-23 11:50:00,
2013-06-23 07:55:00,79.4,74.2,30.09,South,171,4.0,7.0,84,0.01,,BKN110,0.01,258.00,VWS V14.01,2013-06-23 11:55:00,
2013-06-23 08:00:00,79.4,74.5,30.09,South,175,1.0,1.0,85,0.01,,BKN110,0.01,257.00,VWS V14.01,2013-06-23 12:00:00,
2013-06-23 08:05:00,79.8,75.6,30.09,ENE,65,2.0,2.0,87,0.02,,BKN110,0.02,274.00,VWS V14.01,2013-06-23 12:05:00,
2013-06-23 08:10:00,80.2,75.6,30.09,ENE,65,2.0,3.0,86,0.02,,BKN110,0.02,397.00,VWS V14.01,2013-06-23 12:10:00,
2013-06-23 08:15:00,80.8,76.2,30.09,ESE,119,3.0,3.0,86,0.03,,BKN110,0.03,408.00,VWS V14.01,2013-06-23 12:15:00,
2013-06-23 08:20:00,81.7,76.4,30.10,SSE,150,3.0,5.0,84,0.03,,BKN110,0.03,417.00,VWS V14.01,2013-06-23 12:20:00,
2013-06-23 08:25:00,82.3,75.9,30.10,North,360,3.0,7.0,81,0.03,,BKN110,0.03,438.00,VWS V14.01,2013-06-23 12:25:00,
2013-06-23 08:30:00,82.9,76.1,30.10,SSE,161,1.0,5.0,80,0.03,,BKN110,0.03,450.00,VWS V14.01,2013-06-23 12:30:00,
2013-06-23 08:35:00,83.4,76.2,30.10,SE,132,2.0,5.0,79,0.03,,BKN110,0.03,357.00,VWS V14.01,2013-06-23 12:35:00,
2013-06-23 08:40:00,83.4,75.4,30.11,SSE,150,3.0,7.0,77,0.03,,BKN110,0.03,406.00,VWS V14.01,2013-06-23 12:40:00,
2013-06-23 08:45:00,83.6,74.8,30.10,SSE,155,4.0,13.0,75,0.03,,BKN110,0.03,476.00,VWS V14.01,2013-06-23 12:45:00,
2013-06-23 08:50:00,84.0,74.8,30.11,East,88,5.0,10.0,74,0.03,,-RA,0.03,503.00,VWS V14.01,2013-06-23 12:50:00,
2013-06-23 08:55:00,84.4,74.8,30.11,SSE,158,2.0,9.0,73,0.02,,-RA,0.03,520.00,VWS V14.01,2013-06-23 12:55:00,
2013-06-23 09:00:00,84.8,74.8,30.11,East,88,7.0,7.0,72,0.02,,-RA,0.03,563.00,VWS V14.01,2013-06-23 13:00:00,
2013-06-23 09:05:00,85.1,75.1,30.11,East,89,3.0,9.0,72,0.01,,-RA,0.03,557.00,VWS V14.01,2013-06-23 13:05:00,
2013-06-23 09:10:00,85.4,75.3,30.11,North,360,6.0,10.0,72,0.01,,-RA,0.03,592.00,VWS V14.01,2013-06-23 13:10:00,
2013-06-23 09:15:00,85.6,74.3,30.11,SSE,161,8.0,12.0,69,0.01,,-RA,0.03,580.00,VWS V14.01,2013-06-23 13:15:00,
2013-06-23 09:20:00,85.7,73.5,30.11,ESE,121,5.0,10.0,67,0.00,,-RA,0.03,582.00,VWS V14.01,2013-06-23 13:20:00,
2013-06-23 09:25:00,85.9,75.0,30.11,East,92,3.0,6.0,70,0.00,,-RA,0.03,613.00,VWS V14.01,2013-06-23 13:25:00,
2013-06-23 09:30:00,86.1,73.4,30.11,SSE,155,3.0,7.0,66,0.00,,-RA,0.03,603.00,VWS V14.01,2013-06-23 13:30:00,
2013-06-23 09:35:00,86.2,73.5,30.11,SSE,164,5.0,10.0,66,0.00,,-RA,0.03,610.00,VWS V14.01,2013-06-23 13:35:00,
2013-06-23 09:40:00,86.2,74.0,30.11,East,90,7.0,10.0,67,0.00,,CLR,0.03,571.00,VWS V14.01,2013-06-23 13:40:00,
2013-06-23 09:45:00,86.3,74.1,30.11,ESE,112,4.0,9.0,67,0.00,,CLR,0.03,622.00,VWS V14.01,2013-06-23 13:45:00,
2013-06-23 09:50:00,86.0,73.8,30.11,SE,136,7.0,13.0,67,0.00,,CLR,0.03,615.00,VWS V14.01,2013-06-23 13:50:00,
2013-06-23 09:55:00,86.2,74.0,30.11,ESE,117,7.0,8.0,67,0.00,,CLR,0.03,642.00,VWS V14.01,2013-06-23 13:55:00,
2013-06-23 10:00:00,86.5,73.8,30.11,SSE,148,4.0,12.0,66,0.00,,CLR,0.03,638.00,VWS V14.01,2013-06-23 14:00:00,
2013-06-23 10:01:00,86.5,73.8,30.11,ESE,119,7.0,12.0,66,0.00,,CLR,0.03,636.00,VWS V14.01,2013-06-23 14:01:00,
2013-06-23 10:05:00,86.6,73.9,30.11,ESE,118,7.0,8.0,66,0.00,,CLR,0.03,657.00,VWS V14.01,2013-06-23 14:05:00,
2013-06-23 10:06:00,86.7,74.0,30.11,ESE,108,3.0,8.0,66,0.00,,CLR,0.03,657.00,VWS V14.01,2013-06-23 14:06:00,
2013-06-23 10:10:00,86.6,73.9,30.11,North,360,3.0,8.0,66,0.00,,CLR,0.03,355.00,VWS V14.01,2013-06-23 14:10:00,
2013-06-23 10:11:00,86.7,74.0,30.11,SSE,162,6.0,8.0,66,0.00,,CLR,0.03,668.00,VWS V14.01,2013-06-23 14:11:00,
2013-06-23 10:15:00,86.8,74.1,30.11,SE,130,8.0,9.0,66,0.00,,CLR,0.03,594.00,VWS V14.01,2013-06-23 14:15:00,
2013-06-23 10:16:00,86.8,73.6,30.11,SSE,157,4.0,7.0,65,0.00,,CLR,0.03,742.00,VWS V14.01,2013-06-23 14:16:00,
2013-06-23 10:20:00,87.2,74.0,30.11,SSE,161,7.0,16.0,65,0.00,,CLR,0.03,654.00,VWS V14.01,2013-06-23 14:20:00,
2013-06-23 10:21:00,87.1,72.5,30.11,SE,132,4.0,9.0,62,0.00,,CLR,0.03,654.00,VWS V14.01,2013-06-23 14:21:00,
2013-06-23 10:25:00,87.0,73.4,30.12,SSE,153,6.0,9.0,64,0.00,,CLR,0.03,740.00,VWS V14.01,2013-06-23 14:25:00,
2013-06-23 10:26:00,86.9,72.3,30.12,North,360,4.0,6.0,62,0.00,,CLR,0.03,742.00,VWS V14.01,2013-06-23 14:26:00,
2013-06-23 10:30:00,87.1,72.5,30.12,ENE,70,2.0,8.0,62,0.00,,CLR,0.03,682.00,VWS V14.01,2013-06-23 14:30:00,
2013-06-23 10:31:00,87.1,73.0,30.12,ESE,114,2.0,10.0,63,0.00,,CLR,0.03,682.00,VWS V14.01,2013-06-23 14:31:00,
2013-06-23 10:35:00,87.2,73.6,30.12,ENE,64,4.0,7.0,64,0.00,,CLR,0.03,223.00,VWS V14.01,2013-06-23 14:35:00,
2013-06-23 10:36:00,87.1,73.4,30.12,East,89,6.0,7.0,64,0.00,,SCT033,0.03,742.00,VWS V14.01,2013-06-23 14:36:00,
2013-06-23 10:40:00,87.0,73.4,30.12,SE,137,8.0,12.0,64,0.00,,CLR,0.03,772.00,VWS V14.01,2013-06-23 14:40:00,
2013-06-23 10:41:00,87.1,73.0,30.12,East,93,5.0,13.0,63,0.00,,SCT033,0.03,772.00,VWS V14.01,2013-06-23 14:41:00,
2013-06-23 10:45:00,87.2,73.1,30.12,East,88,6.0,8.0,63,0.00,,CLR,0.03,793.00,VWS V14.01,2013-06-23 14:45:00,
2013-06-23 10:46:00,87.3,73.6,30.12,ENE,74,3.0,9.0,64,0.00,,SCT033,0.03,752.00,VWS V14.01,2013-06-23 14:46:00,
2013-06-23 10:50:00,87.2,73.6,30.12,SSE,159,7.0,10.0,64,0.00,,CLR,0.03,348.00,VWS V14.01,2013-06-23 14:50:00,
2013-06-23 10:51:00,87.1,73.9,30.12,SSE,154,7.0,9.0,65,0.00,,SCT033,0.03,348.00,VWS V14.01,2013-06-23 14:51:00,
2013-06-23 10:55:00,86.8,74.1,30.12,SSE,165,2.0,10.0,66,0.00,,CLR,0.03,281.00,VWS V14.01,2013-06-23 14:55:00,
2013-06-23 10:56:00,86.8,74.5,30.12,ENE,72,7.0,8.0,67,0.00,,SCT033,0.03,281.00,VWS V14.01,2013-06-23 14:56:00,
2013-06-23 11:00:00,86.9,75.1,30.12,SSE,161,6.0,11.0,68,0.00,,CLR,0.03,471.00,VWS V14.01,2013-06-23 15:00:00,
2013-06-23 11:01:00,86.8,75.4,30.12,South,169,5.0,9.0,69,0.00,,SCT033,0.03,1037.00,VWS V14.01,2013-06-23 15:01:00,
2013-06-23 11:05:00,87.1,76.6,30.12,ENE,62,5.0,7.0,71,0.00,,CLR,0.03,960.00,VWS V14.01,2013-06-23 15:05:00,
2013-06-23 11:06:00,87.5,76.1,30.12,South,180,3.0,8.0,69,0.00,,SCT033,0.03,960.00,VWS V14.01,2013-06-23 15:06:00,
2013-06-23 11:10:00,87.7,75.8,30.12,SSE,160,5.0,8.0,68,0.00,,CLR,0.03,580.00,VWS V14.01,2013-06-23 15:10:00,
2013-06-23 11:11:00,87.7,75.4,30.12,SE,130,5.0,8.0,67,0.00,,SCT033,0.03,900.00,VWS V14.01,2013-06-23 15:11:00,
2013-06-23 11:15:00,87.4,74.7,30.12,SE,144,8.0,9.0,66,0.00,,CLR,0.03,508.00,VWS V14.01,2013-06-23 15:15:00,
2013-06-23 11:16:00,87.1,75.3,30.12,East,92,5.0,7.0,68,0.00,,SCT033,0.03,710.00,VWS V14.01,2013-06-23 15:16:00,
2013-06-23 11:20:00,87.1,74.8,30.12,ENE,69,4.0,9.0,67,0.00,,CLR,0.03,819.00,VWS V14.01,2013-06-23 15:20:00,
2013-06-23 11:21:00,87.1,74.8,30.12,SSE,154,9.0,10.0,67,0.00,,SCT033,0.03,531.00,VWS V14.01,2013-06-23 15:21:00,
2013-06-23 11:25:00,87.3,75.9,30.12,NNE,32,5.0,9.0,69,0.00,,CLR,0.03,891.00,VWS V14.01,2013-06-23 15:25:00,
2013-06-23 11:26:00,87.5,75.2,30.12,East,88,6.0,7.0,67,0.00,,SCT033,0.03,904.00,VWS V14.01,2013-06-23 15:26:00,
2013-06-23 11:30:00,87.7,75.4,30.12,SSW,203,5.0,11.0,67,0.00,,CLR,0.03,904.00,VWS V14.01,2013-06-23 15:30:00,
2013-06-23 11:31:00,87.8,75.9,30.12,ESE,123,5.0,9.0,68,0.00,,SCT033,0.03,865.00,VWS V14.01,2013-06-23 15:31:00,
2013-06-23 11:35:00,87.9,75.6,30.12,SE,124,10.0,11.0,67,0.00,,CLR,0.03,863.00,VWS V14.01,2013-06-23 15:35:00,
2013-06-23 11:36:00,87.9,74.2,30.12,SE,128,4.0,10.0,64,0.00,,SCT033,0.03,863.00,VWS V14.01,2013-06-23 15:36:00,
2013-06-23 11:40:00,88.0,74.8,30.12,SSE,167,7.0,7.0,65,0.00,,CLR,0.03,918.00,VWS V14.01,2013-06-23 15:40:00,
2013-06-23 11:41:00,88.0,74.3,30.12,East,93,7.0,9.0,64,0.00,,SCT048,0.03,909.00,VWS V14.01,2013-06-23 15:41:00,
2013-06-23 11:45:00,88.3,74.6,30.12,East,86,3.0,14.0,64,0.00,,CLR,0.03,918.00,VWS V14.01,2013-06-23 15:45:00,
2013-06-23 11:46:00,88.4,74.7,30.12,ESE,111,7.0,9.0,64,0.00,,SCT048,0.03,1005.00,VWS V14.01,2013-06-23 15:46:00,
2013-06-23 11:50:00,88.2,74.5,30.12,SSE,164,7.0,11.0,64,0.00,,CLR,0.03,1005.00,VWS V14.01,2013-06-23 15:50:00,
2013-06-23 11:51:00,88.5,75.7,30.12,SE,146,6.0,10.0,66,0.00,,SCT048,0.03,928.00,VWS V14.01,2013-06-23 15:51:00,
2013-06-23 11:55:00,88.4,73.7,30.12,North,360,7.0,11.0,62,0.00,,CLR,0.03,214.00,VWS V14.01,2013-06-23 15:55:00,
2013-06-23 11:56:00,88.1,73.9,30.12,SE,132,9.0,11.0,63,0.00,,SCT048,0.03,392.00,VWS V14.01,2013-06-23 15:56:00,
2013-06-23 12:00:00,88.3,73.6,30.12,SSE,163,9.0,13.0,62,0.00,,CLR,0.03,981.00,VWS V14.01,2013-06-23 16:00:00,
2013-06-23 12:01:00,88.6,74.4,30.12,East,96,7.0,7.0,63,0.00,,SCT048,0.03,976.00,VWS V14.01,2013-06-23 16:01:00,
2013-06-23 12:05:00,88.9,74.2,30.12,NE,48,2.0,9.0,62,0.00,,CLR,0.03,916.00,VWS V14.01,2013-06-23 16:05:00,
2013-06-23 12:06:00,89.0,74.8,30.12,NE,52,9.0,9.0,63,0.00,,SCT048,0.03,1034.00,VWS V14.01,2013-06-23 16:06:00,
2013-06-23 12:10:00,89.1,73.9,30.12,SSE,154,10.0,10.0,61,0.00,,CLR,0.03,969.00,VWS V14.01,2013-06-23 16:10:00,
2013-06-23 12:11:00,89.2,75.4,30.12,ENE,67,7.0,7.0,64,0.00,,SCT048,0.03,1067.00,VWS V14.01,2013-06-23 16:11:00,
2013-06-23 12:15:00,89.3,73.6,30.12,NE,43,5.0,16.0,60,0.00,,CLR,0.03,1136.00,VWS V14.01,2013-06-23 16:15:00,
2013-06-23 12:16:00,89.3,74.6,30.12,ENE,73,4.0,8.0,62,0.00,,SCT048,0.03,1136.00,VWS V14.01,2013-06-23 16:16:00,
2013-06-23 12:20:00,89.2,75.0,30.12,SE,124,7.0,7.0,63,0.00,,CLR,0.03,313.00,VWS V14.01,2013-06-23 16:20:00,
2013-06-23 12:21:00,88.8,74.6,30.12,SSE,161,5.0,10.0,63,0.00,,SCT048,0.03,422.00,VWS V14.01,2013-06-23 16:21:00,
2013-06-23 12:25:00,88.3,74.1,30.13,WSW,240,7.0,7.0,63,0.00,,CLR,0.03,439.00,VWS V14.01,2013-06-23 16:25:00,
2013-06-23 12:26:00,88.3,73.6,30.12,South,169,8.0,16.0,62,0.00,,SCT048,0.03,439.00,VWS V14.01,2013-06-23 16:26:00,
2013-06-23 12:30:00,88.1,74.9,30.12,South,188,18.0,18.0,65,0.00,,CLR,0.03,605.00,VWS V14.01,2013-06-23 16:30:00,
2013-06-23 12:31:00,88.1,74.9,30.12,SSE,154,7.0,10.0,65,0.00,,SCT048,0.03,668.00,VWS V14.01,2013-06-23 16:31:00,
2013-06-23 12:35:00,88.4,74.2,30.12,East,93,3.0,10.0,63,0.00,,CLR,0.03,1174.00,VWS V14.01,2013-06-23 16:35:00,
2013-06-23 12:36:00,88.7,75.0,30.12,NE,40,4.0,11.0,64,0.00,,FEW031,0.03,364.00,VWS V14.01,2013-06-23 16:36:00,
2013-06-23 12:40:00,88.8,76.0,30.12,ESE,117,9.0,9.0,66,0.00,,CLR,0.03,364.00,VWS V14.01,2013-06-23 16:40:00,
2013-06-23 12:41:00,89.1,75.3,30.12,SE,130,5.0,9.0,64,0.00,,FEW031,0.03,749.00,VWS V14.01,2013-06-23 16:41:00,
2013-06-23 12:45:00,89.0,75.2,30.12,NNE,15,6.0,13.0,64,0.00,,CLR,0.03,749.00,VWS V14.01,2013-06-23 16:45:00,
2013-06-23 12:46:00,88.8,74.6,30.12,ENE,71,5.0,16.0,63,0.00,,FEW031,0.03,749.00,VWS V14.01,2013-06-23 16:46:00,
2013-06-23 12:50:00,88.5,74.8,30.12,East,86,6.0,10.0,64,0.00,,CLR,0.03,483.00,VWS V14.01,2013-06-23 16:50:00,
2013-06-23 12:51:00,88.3,74.6,30.12,ENE,64,5.0,10.0,64,0.00,,FEW031,0.03,483.00,VWS V14.01,2013-06-23 16:51:00,
2013-06-23 12:55:00,88.7,75.4,30.12,NNE,31,4.0,7.0,65,0.00,,CLR,0.03,1141.00,VWS V14.01,2013-06-23 16:55:00,
2013-06-23 12:56:00,89.0,74.8,30.12,ENE,71,5.0,10.0,63,0.00,,FEW031,0.03,1093.00,VWS V14.01,2013-06-23 16:56:00,
2013-06-23 12:57:00,89.0,74.3,30.12,SSE,165,1.0,9.0,62,0.00,,FEW031,0.03,1093.00,VWS V14.01,2013-06-23 16:57:00,
2013-06-23 12:58:00,88.9,74.2,30.12,ESE,119,4.0,8.0,62,0.00,,FEW031,0.03,325.00,VWS V14.01,2013-06-23 16:58:00,
2013-06-23 13:00:00,88.8,75.1,30.12,ESE,109,4.0,8.0,64,0.00,,CLR,0.03,325.00,VWS V14.01,2013-06-23 17:00:00,
2013-06-23 13:03:00,88.6,74.4,30.12,SE,130,9.0,10.0,63,0.00,,FEW031,0.03,1202.00,VWS V14.01,2013-06-23 17:03:00,
2013-06-23 13:05:00,88.6,74.4,30.12,SSE,155,6.0,14.0,63,0.00,,CLR,0.03,1202.00,VWS V14.01,2013-06-23 17:05:00,
2013-06-23 13:08:00,88.7,74.5,30.12,SSE,159,4.0,9.0,63,0.00,,FEW031,0.03,1130.00,VWS V14.01,2013-06-23 17:08:00,
2013-06-23 13:10:00,88.8,75.1,30.12,SE,131,8.0,11.0,64,0.00,,CLR,0.03,1136.00,VWS V14.01,2013-06-23 17:10:00,
2013-06-23 13:13:00,89.1,74.9,30.12,SSE,158,4.0,10.0,63,0.00,,FEW031,0.03,322.00,VWS V14.01,2013-06-23 17:13:00,
2013-06-23 13:15:00,89.0,73.8,30.12,ENE,69,4.0,14.0,61,0.00,,CLR,0.03,322.00,VWS V14.01,2013-06-23 17:15:00,
2013-06-23 13:18:00,89.0,73.3,30.12,East,86,5.0,13.0,60,0.00,,FEW031,0.03,1109.00,VWS V14.01,2013-06-23 17:18:00,
2013-06-23 13:20:00,89.1,73.4,30.12,ENE,74,7.0,8.0,60,0.00,,CLR,0.03,1109.00,VWS V14.01,2013-06-23 17:20:00,
2013-06-23 13:23:00,89.5,72.8,30.12,ESE,108,3.0,10.0,58,0.00,,FEW031,0.03,1132.00,VWS V14.01,2013-06-23 17:23:00,
2013-06-23 13:25:00,89.5,73.8,30.12,SE,146,5.0,9.0,60,0.00,,CLR,0.03,1053.00,VWS V14.01,2013-06-23 17:25:00,
2013-06-23 13:28:00,89.9,74.2,30.12,NE,42,3.0,9.0,60,0.00,,FEW031,0.03,1042.00,VWS V14.01,2013-06-23 17:28:00,
2013-06-23 13:30:00,90.1,73.3,30.12,ESE,111,5.0,8.0,58,0.00,,CLR,0.03,865.00,VWS V14.01,2013-06-23 17:30:00,
2013-06-23 13:33:00,90.0,73.8,30.12,SSE,163,3.0,9.0,59,0.00,,FEW031,0.03,1062.00,VWS V14.01,2013-06-23 17:33:00,
2013-06-23 13:35:00,90.0,73.8,30.12,ESE,109,5.0,11.0,59,0.00,,CLR,0.03,1046.00,VWS V14.01,2013-06-23 17:35:00,
2013-06-23 13:38:00,90.3,73.5,30.12,East,85,5.0,11.0,58,0.00,,FEW031,0.03,995.00,VWS V14.01,2013-06-23 17:38:00,
2013-06-23 13:40:00,90.2,73.4,30.12,NE,41,4.0,9.0,58,0.00,,CLR,0.03,993.00,VWS V14.01,2013-06-23 17:40:00,
2013-06-23 13:43:00,90.0,73.8,30.12,East,93,6.0,10.0,59,0.00,,FEW033,0.03,1002.00,VWS V14.01,2013-06-23 17:43:00,
2013-06-23 13:45:00,90.0,74.8,30.12,SE,128,5.0,11.0,61,0.00,,CLR,0.03,995.00,VWS V14.01,2013-06-23 17:45:00,
2013-06-23 13:48:00,89.7,74.0,30.12,NNE,31,5.0,11.0,60,0.00,,FEW033,0.03,1027.00,VWS V14.01,2013-06-23 17:48:00,
2013-06-23 13:50:00,89.7,73.5,30.12,SE,130,8.0,8.0,59,0.00,,CLR,0.03,1028.00,VWS V14.01,2013-06-23 17:50:00,
2013-06-23 13:53:00,89.8,73.6,30.12,SE,134,3.0,6.0,59,0.00,,FEW033,0.03,1011.00,VWS V14.01,2013-06-23 17:53:00,
2013-06-23 13:55:00,89.9,73.7,30.12,ENE,71,7.0,8.0,59,0.00,,CLR,0.03,1009.00,VWS V14.01,2013-06-23 17:55:00,
2013-06-23 13:58:00,89.9,73.2,30.12,SSE,155,10.0,10.0,58,0.00,,FEW033,0.03,1005.00,VWS V14.01,2013-06-23 17:58:00,
2013-06-23 14:00:00,89.8,73.6,30.12,East,94,5.0,10.0,59,0.00,,CLR,0.03,1020.00,VWS V14.01,2013-06-23 18:00:00,
2013-06-23 14:03:00,89.6,72.9,30.12,East,90,6.0,10.0,58,0.00,,FEW033,0.03,209.00,VWS V14.01,2013-06-23 18:03:00,
2013-06-23 14:05:00,89.5,73.8,30.12,East,97,6.0,9.0,60,0.00,,CLR,0.03,1060.00,VWS V14.01,2013-06-23 18:05:00,
2013-06-23 14:08:00,89.6,73.9,30.11,ENE,65,4.0,12.0,60,0.00,,FEW033,0.03,267.00,VWS V14.01,2013-06-23 18:08:00,
2013-06-23 14:10:00,89.4,73.2,30.11,ESE,115,5.0,12.0,59,0.00,,CLR,0.03,267.00,VWS V14.01,2013-06-23 18:10:00,
2013-06-23 14:13:00,89.0,74.8,30.11,SE,131,10.0,11.0,63,0.00,,FEW033,0.03,244.00,VWS V14.01,2013-06-23 18:13:00,
2013-06-23 14:15:00,88.8,74.6,30.11,SE,133,6.0,11.0,63,0.00,,CLR,0.03,265.00,VWS V14.01,2013-06-23 18:15:00,
2013-06-23 14:18:00,88.2,71.6,30.11,SE,133,7.0,15.0,58,0.00,,FEW033,0.03,1062.00,VWS V14.01,2013-06-23 18:18:00,
2013-06-23 14:20:00,88.2,72.1,30.11,ESE,119,7.0,15.0,59,0.00,,CLR,0.03,1025.00,VWS V14.01,2013-06-23 18:20:00,
2013-06-23 14:23:00,88.6,74.4,30.11,East,85,2.0,11.0,63,0.00,,FEW033,0.03,972.00,VWS V14.01,2013-06-23 18:23:00,
2013-06-23 14:25:00,88.7,74.5,30.11,SW,224,5.0,11.0,63,0.00,,CLR,0.03,967.00,VWS V14.01,2013-06-23 18:25:00,
2013-06-23 14:28:00,89.1,74.9,30.11,NE,51,4.0,8.0,63,0.00,,FEW033,0.03,974.00,VWS V14.01,2013-06-23 18:28:00,
2013-06-23 14:30:00,89.1,73.9,30.11,North,360,5.0,6.0,61,0.00,,CLR,0.03,972.00,VWS V14.01,2013-06-23 18:30:00,
2013-06-23 14:33:00,89.3,74.1,30.10,SE,133,3.0,9.0,61,0.00,,FEW033,0.03,986.00,VWS V14.01,2013-06-23 18:33:00,
2013-06-23 14:35:00,89.3,73.6,30.10,ENE,63,8.0,13.0,60,0.00,,CLR,0.03,991.00,VWS V14.01,2013-06-23 18:35:00,
2013-06-23 14:38:00,89.6,73.9,30.10,East,86,7.0,9.0,60,0.00,,FEW033,0.03,1009.00,VWS V14.01,2013-06-23 18:38:00,
2013-06-23 14:40:00,89.6,74.4,30.10,SSE,168,6.0,8.0,61,0.00,,CLR,0.03,1016.00,VWS V14.01,2013-06-23 18:40:00,
2013-06-23 14:43:00,90.1,74.3,30.10,SE,131,8.0,10.0,60,0.00,,FEW033,0.03,1002.00,VWS V14.01,2013-06-23 18:43:00,
2013-06-23 14:45:00,90.2,73.4,30.10,SE,134,6.0,17.0,58,0.00,,CLR,0.03,1009.00,VWS V14.01,2013-06-23 18:45:00,
2013-06-23 14:48:00,90.1,73.8,30.10,SE,140,11.0,11.0,59,0.00,,FEW033,0.03,359.00,VWS V14.01,2013-06-23 18:48:00,
2013-06-23 14:50:00,90.0,73.8,30.10,NE,47,5.0,12.0,59,0.00,,CLR,0.03,272.00,VWS V14.01,2013-06-23 18:50:00,
2013-06-23 14:53:00,89.5,74.3,30.09,East,95,3.0,7.0,61,0.00,,FEW033,0.03,1023.00,VWS V14.01,2013-06-23 18:53:00,
2013-06-23 14:55:00,89.4,74.2,30.09,ENE,63,8.0,9.0,61,0.00,,CLR,0.03,1023.00,VWS V14.01,2013-06-23 18:55:00,
2013-06-23 14:58:00,89.5,74.8,30.09,ESE,110,3.0,8.0,62,0.00,,FEW033,0.03,260.00,VWS V14.01,2013-06-23 18:58:00,
2013-06-23 15:00:00,89.5,74.3,30.09,ENE,69,5.0,8.0,61,0.00,,CLR,0.03,1146.00,VWS V14.01,2013-06-23 19:00:00,
2013-06-23 15:03:00,89.7,75.4,30.09,NE,46,5.0,9.0,63,0.00,,FEW033,0.03,357.00,VWS V14.01,2013-06-23 19:03:00,
2013-06-23 15:05:00,89.7,74.5,30.09,SE,133,6.0,9.0,61,0.00,,CLR,0.03,357.00,VWS V14.01,2013-06-23 19:05:00,
2013-06-23 15:08:00,89.2,75.0,30.10,East,96,6.0,9.0,63,0.00,,FEW033,0.03,227.00,VWS V14.01,2013-06-23 19:08:00,
2013-06-23 15:10:00,89.1,74.9,30.10,NE,49,2.0,9.0,63,0.00,,CLR,0.03,269.00,VWS V14.01,2013-06-23 19:10:00,
2013-06-23 15:13:00,88.3,75.1,30.10,ESE,110,5.0,10.0,65,0.00,,FEW033,0.03,274.00,VWS V14.01,2013-06-23 19:13:00,
2013-06-23 15:15:00,88.1,74.9,30.10,ESE,112,9.0,9.0,65,0.00,,CLR,0.03,248.00,VWS V14.01,2013-06-23 19:15:00,
2013-06-23 15:18:00,87.3,74.1,30.10,East,89,5.0,9.0,65,0.00,,FEW033,0.03,327.00,VWS V14.01,2013-06-23 19:18:00,
2013-06-23 15:20:00,87.1,74.4,30.10,East,90,1.0,9.0,66,0.00,,CLR,0.03,278.00,VWS V14.01,2013-06-23 19:20:00,
2013-06-23 15:23:00,87.0,74.3,30.10,ENE,69,4.0,8.0,66,0.00,,FEW033,0.03,682.00,VWS V14.01,2013-06-23 19:23:00,
2013-06-23 15:25:00,87.1,74.8,30.10,SE,132,5.0,7.0,67,0.00,,CLR,0.03,682.00,VWS V14.01,2013-06-23 19:25:00,
2013-06-23 15:28:00,87.3,74.6,30.10,SE,126,3.0,11.0,66,0.00,,FEW033,0.03,301.00,VWS V14.01,2013-06-23 19:28:00,
2013-06-23 15:30:00,87.4,74.7,30.10,ESE,119,5.0,11.0,66,0.00,,CLR,0.03,301.00,VWS V14.01,2013-06-23 19:30:00,
2013-06-23 15:33:00,87.5,74.8,30.10,ESE,117,4.0,9.0,66,0.00,,FEW033,0.03,441.00,VWS V14.01,2013-06-23 19:33:00,
2013-06-23 15:35:00,87.6,74.8,30.10,ENE,69,8.0,10.0,66,0.00,,CLR,0.03,403.00,VWS V14.01,2013-06-23 19:35:00,
2013-06-23 15:38:00,87.6,73.9,30.10,SE,127,6.0,9.0,64,0.00,,SCT044,0.03,930.00,VWS V14.01,2013-06-23 19:38:00,
2013-06-23 15:40:00,87.7,73.6,30.10,NE,47,6.0,7.0,63,0.00,,CLR,0.03,958.00,VWS V14.01,2013-06-23 19:40:00,
2013-06-23 15:43:00,88.5,73.8,30.10,SSE,149,7.0,9.0,62,0.00,,SCT044,0.03,923.00,VWS V14.01,2013-06-23 19:43:00,
2013-06-23 15:45:00,88.6,73.9,30.10,ESE,115,5.0,9.0,62,0.00,,CLR,0.03,923.00,VWS V14.01,2013-06-23 19:45:00,
2013-06-23 15:48:00,88.7,74.0,30.10,SE,146,6.0,8.0,62,0.00,,SCT044,0.03,250.00,VWS V14.01,2013-06-23 19:48:00,
2013-06-23 15:50:00,88.6,73.9,30.10,SSE,156,7.0,9.0,62,0.00,,CLR,0.03,292.00,VWS V14.01,2013-06-23 19:50:00,
2013-06-23 15:53:00,88.7,74.5,30.09,ESE,116,7.0,8.0,63,0.00,,SCT044,0.03,1032.00,VWS V14.01,2013-06-23 19:53:00,
2013-06-23 15:55:00,88.8,75.1,30.09,SE,146,3.0,8.0,64,0.00,,CLR,0.03,1032.00,VWS V14.01,2013-06-23 19:55:00,
2013-06-23 15:58:00,89.4,75.6,30.09,East,97,3.0,10.0,64,0.00,,SCT044,0.03,438.00,VWS V14.01,2013-06-23 19:58:00,
2013-06-23 16:00:00,89.5,75.7,30.09,ESE,117,3.0,10.0,64,0.00,,CLR,0.03,438.00,VWS V14.01,2013-06-23 20:00:00,
2013-06-23 16:03:00,88.9,73.2,30.09,ENE,75,5.0,8.0,60,0.00,,SCT044,0.03,214.00,VWS V14.01,2013-06-23 20:03:00,
2013-06-23 16:05:00,88.7,73.0,30.09,ESE,109,2.0,8.0,60,0.00,,CLR,0.03,193.00,VWS V14.01,2013-06-23 20:05:00,
2013-06-23 16:08:00,87.9,73.7,30.09,SE,132,3.0,8.0,63,0.00,,SCT044,0.03,241.00,VWS V14.01,2013-06-23 20:08:00,
2013-06-23 16:10:00,87.9,74.2,30.09,SSE,149,4.0,8.0,64,0.00,,CLR,0.03,241.00,VWS V14.01,2013-06-23 20:10:00,
2013-06-23 16:13:00,87.8,74.6,30.09,ENE,76,3.0,7.0,65,0.00,,SCT044,0.03,315.00,VWS V14.01,2013-06-23 20:13:00,
2013-06-23 16:15:00,87.7,74.0,30.09,NNE,22,3.0,7.0,64,0.00,,CLR,0.03,288.00,VWS V14.01,2013-06-23 20:15:00,
2013-06-23 16:18:00,87.3,72.2,30.09,ENE,67,5.0,11.0,61,0.00,,SCT044,0.03,188.00,VWS V14.01,2013-06-23 20:18:00,
2013-06-23 16:20:00,87.2,72.1,30.09,ENE,72,7.0,9.0,61,0.00,,CLR,0.03,186.00,VWS V14.01,2013-06-23 20:20:00,
2013-06-23 16:23:00,86.9,72.3,30.09,ENE,69,3.0,7.0,62,0.00,,SCT044,0.03,227.00,VWS V14.01,2013-06-23 20:23:00,
2013-06-23 16:25:00,86.9,72.8,30.09,East,89,3.0,10.0,63,0.00,,CLR,0.03,227.00,VWS V14.01,2013-06-23 20:25:00,
2013-06-23 16:28:00,87.6,73.9,30.09,ESE,123,3.0,8.0,64,0.00,,SCT044,0.03,879.00,VWS V14.01,2013-06-23 20:28:00,
2013-06-23 16:30:00,87.8,73.2,30.09,East,86,6.0,10.0,62,0.00,,CLR,0.03,884.00,VWS V14.01,2013-06-23 20:30:00,
2013-06-23 16:33:00,88.6,74.4,30.09,NE,52,3.0,7.0,63,0.00,,SCT044,0.03,204.00,VWS V14.01,2013-06-23 20:33:00,
2013-06-23 16:35:00,88.5,73.3,30.09,NE,46,4.0,10.0,61,0.00,,CLR,0.03,148.00,VWS V14.01,2013-06-23 20:35:00,
2013-06-23 16:38:00,87.7,73.1,30.09,ESE,110,5.0,8.0,62,0.00,,FEW034,0.03,151.00,VWS V14.01,2013-06-23 20:38:00,
2013-06-23 16:40:00,87.5,73.4,30.09,East,97,2.0,6.0,63,0.00,,CLR,0.03,151.00,VWS V14.01,2013-06-23 20:40:00,
2013-06-23 16:43:00,88.0,74.3,30.08,ENE,70,7.0,7.0,64,0.00,,FEW034,0.03,763.00,VWS V14.01,2013-06-23 20:43:00,
2013-06-23 16:45:00,88.2,73.5,30.08,SSE,155,2.0,9.0,62,0.00,,CLR,0.03,756.00,VWS V14.01,2013-06-23 20:45:00,
2013-06-23 16:48:00,88.1,73.0,30.08,ESE,109,11.0,11.0,61,0.00,,FEW034,0.03,765.00,VWS V14.01,2013-06-23 20:48:00,
2013-06-23 16:50:00,88.0,73.4,30.08,East,86,5.0,11.0,62,0.00,,CLR,0.03,761.00,VWS V14.01,2013-06-23 20:50:00,
2013-06-23 16:53:00,88.3,73.2,30.08,SSE,147,6.0,9.0,61,0.00,,FEW034,0.03,578.00,VWS V14.01,2013-06-23 20:53:00,
2013-06-23 16:55:00,88.3,72.7,30.08,SE,136,4.0,9.0,60,0.00,,CLR,0.03,691.00,VWS V14.01,2013-06-23 20:55:00,
2013-06-23 16:58:00,88.2,72.1,30.08,SE,126,4.0,10.0,59,0.00,,FEW034,0.03,693.00,VWS V14.01,2013-06-23 20:58:00,
2013-06-23 17:00:00,88.3,72.7,30.08,NNE,31,6.0,8.0,60,0.00,,CLR,0.03,694.00,VWS V14.01,2013-06-23 21:00:00,
2013-06-23 17:03:00,88.3,73.2,30.08,East,90,6.0,9.0,61,0.00,,FEW034,0.03,703.00,VWS V14.01,2013-06-23 21:03:00,
2013-06-23 17:05:00,88.3,73.6,30.08,SE,132,7.0,8.0,62,0.00,,CLR,0.03,703.00,VWS V14.01,2013-06-23 21:05:00,
2013-06-23 17:08:00,88.2,74.0,30.08,ENE,76,3.0,6.0,63,0.00,,FEW034,0.03,684.00,VWS V14.01,2013-06-23 21:08:00,
2013-06-23 17:10:00,88.3,74.1,30.08,NE,51,3.0,7.0,63,0.00,,CLR,0.03,687.00,VWS V14.01,2013-06-23 21:10:00,
2013-06-23 17:13:00,88.4,74.7,30.08,ENE,72,5.0,8.0,64,0.00,,FEW034,0.03,721.00,VWS V14.01,2013-06-23 21:13:00,
2013-06-23 17:15:00,88.5,74.8,30.08,East,84,7.0,11.0,64,0.00,,CLR,0.03,721.00,VWS V14.01,2013-06-23 21:15:00,
2013-06-23 17:18:00,88.3,74.1,30.08,ENE,71,5.0,8.0,63,0.00,,FEW034,0.03,135.00,VWS V14.01,2013-06-23 21:18:00,
2013-06-23 17:20:00,88.0,74.3,30.08,NE,46,2.0,8.0,64,0.00,,CLR,0.03,183.00,VWS V14.01,2013-06-23 21:20:00,
2013-06-23 17:23:00,87.4,74.2,30.08,SE,130,2.0,7.0,65,0.00,,FEW034,0.03,645.00,VWS V14.01,2013-06-23 21:23:00,
2013-06-23 17:25:00,87.4,74.2,30.08,ENE,61,4.0,6.0,65,0.00,,CLR,0.03,294.00,VWS V14.01,2013-06-23 21:25:00,
2013-06-23 17:28:00,87.7,74.9,30.08,NNE,28,8.0,9.0,66,0.00,,FEW034,0.03,664.00,VWS V14.01,2013-06-23 21:28:00,
2013-06-23 17:30:00,87.8,74.6,30.08,East,89,3.0,9.0,65,0.00,,CLR,0.03,640.00,VWS V14.01,2013-06-23 21:30:00,
2013-06-23 17:33:00,87.7,74.5,30.08,NE,38,1.0,7.0,65,0.00,,FEW034,0.03,149.00,VWS V14.01,2013-06-23 21:33:00,
2013-06-23 17:35:00,87.6,74.4,30.08,East,86,5.0,8.0,65,0.00,,CLR,0.03,192.00,VWS V14.01,2013-06-23 21:35:00,
2013-06-23 17:38:00,87.0,73.8,30.08,East,90,7.0,9.0,65,0.00,,FEW035,0.03,202.00,VWS V14.01,2013-06-23 21:38:00,
2013-06-23 17:40:00,86.8,73.6,30.08,East,90,6.0,10.0,65,0.00,,CLR,0.03,202.00,VWS V14.01,2013-06-23 21:40:00,
2013-06-23 17:43:00,86.6,73.9,30.08,East,87,3.0,8.0,66,0.00,,FEW035,0.03,524.00,VWS V14.01,2013-06-23 21:43:00,
2013-06-23 17:45:00,86.6,73.9,30.08,East,84,3.0,9.0,66,0.00,,CLR,0.03,425.00,VWS V14.01,2013-06-23 21:45:00,
2013-06-23 17:48:00,86.9,74.2,30.08,ESE,109,10.0,11.0,66,0.00,,FEW035,0.03,506.00,VWS V14.01,2013-06-23 21:48:00,
2013-06-23 17:50:00,86.9,73.7,30.08,ENE,66,8.0,11.0,65,0.00,,CLR,0.03,508.00,VWS V14.01,2013-06-23 21:50:00,
2013-06-23 17:53:00,86.8,73.6,30.08,NE,34,4.0,10.0,65,0.00,,FEW035,0.03,526.00,VWS V14.01,2013-06-23 21:53:00,
2013-06-23 17:55:00,87.0,74.3,30.08,ESE,113,2.0,6.0,66,0.00,,CLR,0.03,529.00,VWS V14.01,2013-06-23 21:55:00,
2013-06-23 17:58:00,87.4,74.7,30.08,East,86,6.0,11.0,66,0.00,,FEW035,0.03,559.00,VWS V14.01,2013-06-23 21:58:00,
2013-06-23 18:00:00,87.4,74.7,30.08,East,96,6.0,8.0,66,0.00,,CLR,0.03,555.00,VWS V14.01,2013-06-23 22:00:00,
2013-06-23 18:03:00,87.1,74.4,30.08,ENE,69,8.0,11.0,66,0.00,,FEW035,0.03,461.00,VWS V14.01,2013-06-23 22:03:00,
2013-06-23 18:05:00,87.0,74.3,30.08,SE,141,4.0,8.0,66,0.00,,CLR,0.03,461.00,VWS V14.01,2013-06-23 22:05:00,
2013-06-23 18:08:00,86.4,73.7,30.08,ENE,76,4.0,9.0,66,0.00,,FEW035,0.03,176.00,VWS V14.01,2013-06-23 22:08:00,
2013-06-23 18:10:00,86.2,74.0,30.08,SSE,150,3.0,7.0,67,0.00,,CLR,0.03,211.00,VWS V14.01,2013-06-23 22:10:00,
2013-06-23 18:13:00,86.0,74.2,30.08,East,95,8.0,8.0,68,0.00,,FEW035,0.03,431.00,VWS V14.01,2013-06-23 22:13:00,
2013-06-23 18:15:00,86.0,73.8,30.08,NE,51,8.0,8.0,67,0.00,,CLR,0.03,431.00,VWS V14.01,2013-06-23 22:15:00,
2013-06-23 18:18:00,85.9,73.7,30.08,SE,128,4.0,6.0,67,0.00,,FEW035,0.03,190.00,VWS V14.01,2013-06-23 22:18:00,
2013-06-23 18:20:00,85.8,73.6,30.08,ESE,118,9.0,9.0,67,0.00,,CLR,0.03,199.00,VWS V14.01,2013-06-23 22:20:00,
2013-06-23 18:23:00,85.6,73.8,30.08,North,360,7.0,7.0,68,0.00,,FEW035,0.03,193.00,VWS V14.01,2013-06-23 22:23:00,
2013-06-23 18:25:00,85.5,73.7,30.08,SSE,153,5.0,9.0,68,0.00,,CLR,0.03,211.00,VWS V14.01,2013-06-23 22:25:00,
2013-06-23 18:28:00,85.2,73.4,30.08,ENE,64,2.0,8.0,68,0.00,,FEW035,0.03,134.00,VWS V14.01,2013-06-23 22:28:00,
2013-06-23 18:30:00,85.2,73.4,30.08,ENE,68,2.0,5.0,68,0.00,,CLR,0.03,84.00,VWS V14.01,2013-06-23 22:30:00,
2013-06-23 18:33:00,84.9,73.2,30.08,ENE,69,2.0,6.0,68,0.00,,FEW035,0.03,137.00,VWS V14.01,2013-06-23 22:33:00,
2013-06-23 18:35:00,84.8,73.5,30.08,East,90,5.0,5.0,69,0.00,,CLR,0.03,148.00,VWS V14.01,2013-06-23 22:35:00,
2013-06-23 18:38:00,84.7,73.4,30.08,NE,50,3.0,9.0,69,0.00,,FEW035,0.03,156.00,VWS V14.01,2013-06-23 22:38:00,
2013-06-23 18:40:00,84.7,73.4,30.08,East,93,3.0,5.0,69,0.00,,CLR,0.03,155.00,VWS V14.01,2013-06-23 22:40:00,
2013-06-23 18:43:00,84.7,73.8,30.08,ENE,74,4.0,9.0,70,0.00,,SCT032,0.03,134.00,VWS V14.01,2013-06-23 22:43:00,
2013-06-23 18:45:00,84.7,73.8,30.08,NE,44,2.0,6.0,70,0.00,,CLR,0.03,132.00,VWS V14.01,2013-06-23 22:45:00,
2013-06-23 18:48:00,84.7,73.8,30.08,ENE,71,2.0,5.0,70,0.00,,SCT032,0.03,93.00,VWS V14.01,2013-06-23 22:48:00,
2013-06-23 18:50:00,84.7,73.8,30.08,East,93,2.0,7.0,70,0.00,,CLR,0.03,93.00,VWS V14.01,2013-06-23 22:50:00,
2013-06-23 18:53:00,84.6,74.2,30.08,ENE,72,3.0,6.0,71,0.00,,SCT032,0.03,69.00,VWS V14.01,2013-06-23 22:53:00,
2013-06-23 18:55:00,84.7,74.3,30.08,SE,133,3.0,8.0,71,0.00,,CLR,0.03,70.00,VWS V14.01,2013-06-23 22:55:00,
2013-06-23 18:58:00,84.6,74.2,30.08,East,86,5.0,7.0,71,0.00,,SCT032,0.03,46.00,VWS V14.01,2013-06-23 22:58:00,
2013-06-23 19:00:00,84.6,74.2,30.08,East,94,6.0,12.0,71,0.00,,CLR,0.03,44.00,VWS V14.01,2013-06-23 23:00:00,
2013-06-23 19:03:00,84.4,74.4,30.08,ENE,67,3.0,7.0,72,0.00,,SCT032,0.03,35.00,VWS V14.01,2013-06-23 23:03:00,
2013-06-23 19:05:00,84.3,74.3,30.08,ENE,67,2.0,7.0,72,0.00,,CLR,0.03,35.00,VWS V14.01,2013-06-23 23:05:00,
2013-06-23 19:08:00,84.1,73.7,30.08,NE,49,5.0,7.0,71,0.00,,SCT032,0.03,33.00,VWS V14.01,2013-06-23 23:08:00,
2013-06-23 19:10:00,84.1,73.7,30.08,ENE,69,3.0,9.0,71,0.00,,CLR,0.03,30.00,VWS V14.01,2013-06-23 23:10:00,
2013-06-23 19:13:00,83.8,73.8,30.08,ESE,119,5.0,6.0,72,0.00,,SCT032,0.03,30.00,VWS V14.01,2013-06-23 23:13:00,
2013-06-23 19:15:00,83.8,73.8,30.08,East,82,3.0,6.0,72,0.00,,CLR,0.03,30.00,VWS V14.01,2013-06-23 23:15:00,
2013-06-23 19:18:00,83.7,73.7,30.08,East,88,6.0,9.0,72,0.00,,SCT032,0.03,32.00,VWS V14.01,2013-06-23 23:18:00,
2013-06-23 19:20:00,83.7,74.1,30.08,ENE,69,4.0,9.0,73,0.00,,CLR,0.03,30.00,VWS V14.01,2013-06-23 23:20:00,
2013-06-23 19:23:00,83.6,74.0,30.08,SE,126,2.0,6.0,73,0.00,,SCT032,0.03,30.00,VWS V14.01,2013-06-23 23:23:00,
2013-06-23 19:25:00,83.6,74.0,30.08,ESE,113,3.0,5.0,73,0.00,,CLR,0.03,30.00,VWS V14.01,2013-06-23 23:25:00,
2013-06-23 19:28:00,83.5,73.9,30.08,East,84,1.0,6.0,73,0.00,,SCT032,0.03,26.00,VWS V14.01,2013-06-23 23:28:00,
2013-06-23 19:30:00,83.5,73.9,30.08,SE,126,3.0,5.0,73,0.00,,CLR,0.03,26.00,VWS V14.01,2013-06-23 23:30:00,
2013-06-23 19:33:00,83.4,73.8,30.08,ESE,111,4.0,9.0,73,0.00,,SCT032,0.03,25.00,VWS V14.01,2013-06-23 23:33:00,
2013-06-23 19:35:00,83.4,73.8,30.08,NE,42,6.0,7.0,73,0.00,,CLR,0.03,25.00,VWS V14.01,2013-06-23 23:35:00,
2013-06-23 19:38:00,83.3,73.8,30.08,NE,44,6.0,6.0,73,0.00,,SCT032,0.03,23.00,VWS V14.01,2013-06-23 23:38:00,
2013-06-23 19:40:00,83.3,73.8,30.08,ENE,74,4.0,7.0,73,0.00,,CLR,0.03,23.00,VWS V14.01,2013-06-23 23:40:00,
2013-06-23 19:43:00,83.2,73.2,30.08,East,89,6.0,10.0,72,0.00,,SCT029,0.03,19.00,VWS V14.01,2013-06-23 23:43:00,
2013-06-23 19:45:00,83.2,73.2,30.09,East,90,6.0,8.0,72,0.00,,CLR,0.03,19.00,VWS V14.01,2013-06-23 23:45:00,
2013-06-23 19:48:00,83.2,73.7,30.09,ESE,119,2.0,6.0,73,0.00,,SCT029,0.03,18.00,VWS V14.01,2013-06-23 23:48:00,
2013-06-23 19:50:00,83.2,73.7,30.09,East,90,3.0,7.0,73,0.00,,CLR,0.03,16.00,VWS V14.01,2013-06-23 23:50:00,
2013-06-23 19:53:00,83.1,73.6,30.09,East,83,5.0,6.0,73,0.00,,SCT029,0.03,14.00,VWS V14.01,2013-06-23 23:53:00,
2013-06-23 19:55:00,83.1,73.1,30.09,ENE,66,2.0,6.0,72,0.00,,CLR,0.03,14.00,VWS V14.01,2013-06-23 23:55:00,
2013-06-23 19:58:00,83.1,73.1,30.09,NE,49,4.0,7.0,72,0.00,,SCT029,0.03,11.00,VWS V14.01,2013-06-23 23:58:00,
2013-06-23 20:00:00,83.0,73.5,30.09,East,92,3.0,4.0,73,0.00,,CLR,0.03,11.00,VWS V14.01,2013-06-24 00:00:00,
2013-06-23 20:03:00,83.0,73.5,30.09,NE,34,4.0,7.0,73,0.00,,SCT029,0.03,7.00,VWS V14.01,2013-06-24 00:03:00,
2013-06-23 20:05:00,83.0,73.5,30.09,East,96,3.0,9.0,73,0.00,,CLR,0.03,7.00,VWS V14.01,2013-06-24 00:05:00,
2013-06-23 20:08:00,83.0,73.5,30.09,SE,130,4.0,6.0,73,0.00,,SCT029,0.03,5.00,VWS V14.01,2013-06-24 00:08:00,
2013-06-23 20:10:00,83.0,73.5,30.09,East,89,2.0,4.0,73,0.00,,CLR,0.03,5.00,VWS V14.01,2013-06-24 00:10:00,
2013-06-23 20:13:00,83.0,73.5,30.09,East,90,2.0,8.0,73,0.00,,FEW029,0.03,0.00,VWS V14.01,2013-06-24 00:13:00,
2013-06-23 20:15:00,83.0,73.5,30.09,NE,45,2.0,7.0,73,0.00,,CLR,0.03,0.00,VWS V14.01,2013-06-24 00:15:00,
2013-06-23 20:18:00,83.0,73.9,30.09,NNE,13,2.0,7.0,74,0.00,,FEW029,0.03,0.00,VWS V14.01,2013-06-24 00:18:00,
2013-06-23 20:20:00,83.0,73.9,30.09,ESE,121,3.0,7.0,74,0.00,,CLR,0.03,0.00,VWS V14.01,2013-06-24 00:20:00,
2013-06-23 20:23:00,83.1,74.4,30.10,East,93,2.0,10.0,75,0.00,,FEW029,0.03,0.00,VWS V14.01,2013-06-24 00:23:00,
2013-06-23 20:25:00,83.1,74.4,30.10,ENE,71,4.0,10.0,75,0.00,,CLR,0.03,0.00,VWS V14.01,2013-06-24 00:25:00,
2013-06-23 20:28:00,83.2,74.5,30.10,East,94,5.0,13.0,75,0.00,,FEW029,0.03,0.00,VWS V14.01,2013-06-24 00:28:00,
2013-06-23 20:30:00,83.1,74.0,30.10,NE,34,7.0,10.0,74,0.00,,CLR,0.03,0.00,VWS V14.01,2013-06-24 00:30:00,
2013-06-23 20:33:00,83.0,73.9,30.10,East,96,3.0,4.0,74,0.00,,FEW029,0.03,0.00,VWS V14.01,2013-06-24 00:33:00,
2013-06-23 20:35:00,82.9,73.8,30.10,East,86,7.0,7.0,74,0.00,,CLR,0.03,0.00,VWS V14.01,2013-06-24 00:35:00,
2013-06-23 20:38:00,82.9,73.8,30.10,East,89,7.0,7.0,74,0.00,,FEW029,0.03,0.00,VWS V14.01,2013-06-24 00:38:00,
2013-06-23 20:40:00,82.9,73.8,30.10,ENE,69,3.0,7.0,74,0.00,,CLR,0.03,0.00,VWS V14.01,2013-06-24 00:40:00,
2013-06-23 20:43:00,82.8,74.1,30.10,ESE,109,2.0,4.0,75,0.00,,FEW029,0.03,0.00,VWS V14.01,2013-06-24 00:43:00,
2013-06-23 20:45:00,82.8,74.1,30.10,NE,38,5.0,6.0,75,0.00,,CLR,0.03,0.00,VWS V14.01,2013-06-24 00:45:00,
2013-06-23 20:48:00,82.7,73.6,30.10,ESE,108,3.0,7.0,74,0.00,,FEW029,0.03,0.00,VWS V14.01,2013-06-24 00:48:00,
2013-06-23 20:50:00,82.7,73.2,30.10,NE,49,2.0,7.0,73,0.00,,CLR,0.03,0.00,VWS V14.01,2013-06-24 00:50:00,
2013-06-23 20:53:00,82.5,73.0,30.10,East,91,2.0,5.0,73,0.00,,FEW029,0.03,0.00,VWS V14.01,2013-06-24 00:53:00,
2013-06-23 20:55:00,82.5,73.0,30.10,NE,46,2.0,5.0,73,0.00,,CLR,0.03,0.00,VWS V14.01,2013-06-24 00:55:00,
2013-06-23 20:58:00,82.5,73.0,30.10,East,94,2.0,7.0,73,0.00,,FEW029,0.03,0.00,VWS V14.01,2013-06-24 00:58:00,
2013-06-23 21:00:00,82.5,73.0,30.10,East,96,3.0,7.0,73,0.00,,CLR,0.03,0.00,VWS V14.01,2013-06-24 01:00:00,
2013-06-23 21:03:00,82.5,73.0,30.10,East,90,3.0,7.0,73,0.00,,FEW029,0.03,0.00,VWS V14.01,2013-06-24 01:03:00,
2013-06-23 21:05:00,82.5,73.0,30.10,ESE,112,4.0,7.0,73,0.00,,CLR,0.03,0.00,VWS V14.01,2013-06-24 01:05:00,
2013-06-23 21:08:00,82.5,73.0,30.11,ESE,119,4.0,8.0,73,0.00,,FEW029,0.03,0.00,VWS V14.01,2013-06-24 01:08:00,
2013-06-23 21:10:00,82.5,72.6,30.11,East,91,2.0,8.0,72,0.00,,CLR,0.03,0.00,VWS V14.01,2013-06-24 01:10:00,
2013-06-23 21:13:00,82.5,72.6,30.11,ESE,111,1.0,9.0,72,0.00,,FEW029,0.03,0.00,VWS V14.01,2013-06-24 01:13:00,
2013-06-23 21:15:00,82.5,72.6,30.11,ESE,110,3.0,6.0,72,0.00,,CLR,0.03,0.00,VWS V14.01,2013-06-24 01:15:00,
2013-06-23 21:18:00,82.5,73.0,30.11,ENE,65,2.0,4.0,73,0.00,,FEW029,0.03,0.00,VWS V14.01,2013-06-24 01:18:00,
2013-06-23 21:20:00,82.5,73.0,30.11,ENE,67,2.0,3.0,73,0.00,,CLR,0.03,0.00,VWS V14.01,2013-06-24 01:20:00,
2013-06-23 21:23:00,82.5,73.0,30.11,SE,135,4.0,6.0,73,0.00,,FEW029,0.03,0.00,VWS V14.01,2013-06-24 01:23:00,
2013-06-23 21:25:00,82.5,73.0,30.11,NNE,22,3.0,6.0,73,0.00,,CLR,0.03,0.00,VWS V14.01,2013-06-24 01:25:00,
2013-06-23 21:28:00,82.6,73.5,30.11,East,94,5.0,6.0,74,0.00,,FEW029,0.03,0.00,VWS V14.01,2013-06-24 01:28:00,
2013-06-23 21:30:00,82.6,73.5,30.11,SE,129,1.0,5.0,74,0.00,,CLR,0.03,0.00,VWS V14.01,2013-06-24 01:30:00,
2013-06-23 21:33:00,82.7,73.6,30.11,East,92,11.0,17.0,74,0.00,,FEW029,0.03,0.00,VWS V14.01,2013-06-24 01:33:00,
2013-06-23 21:35:00,82.7,73.2,30.11,SSE,155,8.0,18.0,73,0.00,,CLR,0.03,0.00,VWS V14.01,2013-06-24 01:35:00,
2013-06-23 21:38:00,82.0,72.5,30.12,South,171,4.0,8.0,73,0.15,,SCT029,0.18,0.00,VWS V14.01,2013-06-24 01:38:00,
2013-06-23 21:40:00,81.8,72.7,30.12,SSW,193,2.0,5.0,74,0.16,,CLR,0.19,0.00,VWS V14.01,2013-06-24 01:40:00,
2013-06-23 21:43:00,80.7,72.8,30.12,East,84,0.0,1.0,77,0.16,,SCT029,0.19,0.00,VWS V14.01,2013-06-24 01:43:00,
2013-06-23 21:45:00,80.5,73.0,30.12,East,84,0.0,1.0,78,0.17,,CLR,0.20,0.00,VWS V14.01,2013-06-24 01:45:00,
2013-06-23 21:48:00,79.7,73.4,30.12,East,90,0.0,0.0,81,0.17,,SCT029,0.20,0.00,VWS V14.01,2013-06-24 01:48:00,
2013-06-23 21:50:00,79.6,73.6,30.12,East,90,0.0,0.0,82,0.17,,CLR,0.20,0.00,VWS V14.01,2013-06-24 01:50:00,
2013-06-23 21:53:00,79.0,73.8,30.11,ESE,117,0.0,1.0,84,0.18,,SCT029,0.21,0.00,VWS V14.01,2013-06-24 01:53:00,
2013-06-23 21:55:00,78.9,74.0,30.11,ESE,117,0.0,0.0,85,0.18,,CLR,0.21,0.00,VWS V14.01,2013-06-24 01:55:00,
2013-06-23 21:58:00,78.7,74.2,30.11,ESE,118,0.0,1.0,86,0.18,,SCT029,0.21,0.00,VWS V14.01,2013-06-24 01:58:00,
2013-06-23 22:00:00,78.7,74.2,30.12,ESE,118,0.0,1.0,86,0.18,,CLR,0.21,0.00,VWS V14.01,2013-06-24 02:00:00,
2013-06-23 22:03:00,78.6,74.8,30.12,ESE,115,0.0,0.0,88,0.18,,SCT029,0.21,0.00,VWS V14.01,2013-06-24 02:03:00,
2013-06-23 22:05:00,78.6,74.8,30.12,ESE,115,0.0,0.0,88,0.18,,CLR,0.21,0.00,VWS V14.01,2013-06-24 02:05:00,
2013-06-23 22:08:00,78.6,75.1,30.11,ESE,115,0.0,1.0,89,0.18,,SCT029,0.21,0.00,VWS V14.01,2013-06-24 02:08:00,
2013-06-23 22:10:00,78.6,75.1,30.11,ESE,115,0.0,0.0,89,0.18,,CLR,0.21,0.00,VWS V14.01,2013-06-24 02:10:00,
2013-06-23 22:13:00,78.7,75.2,30.12,SSE,165,1.0,5.0,89,0.18,,SCT029,0.21,0.00,VWS V14.01,2013-06-24 02:13:00,
2013-06-23 22:15:00,78.7,75.2,30.12,SW,223,3.0,6.0,89,0.18,,CLR,0.21,0.00,VWS V14.01,2013-06-24 02:15:00,
2013-06-23 22:18:00,78.2,74.0,30.12,SSW,202,2.0,3.0,87,0.18,,SCT029,0.21,0.00,VWS V14.01,2013-06-24 02:18:00,
2013-06-23 22:20:00,78.2,74.0,30.12,SSW,202,0.0,2.0,87,0.18,,CLR,0.21,0.00,VWS V14.01,2013-06-24 02:20:00,
2013-06-23 22:23:00,77.8,74.0,30.12,East,84,2.0,3.0,88,0.18,,SCT029,0.21,0.00,VWS V14.01,2013-06-24 02:23:00,
2013-06-23 22:25:00,77.7,73.9,30.12,East,96,0.0,3.0,88,0.18,,CLR,0.21,0.00,VWS V14.01,2013-06-24 02:25:00,
2013-06-23 22:28:00,77.6,73.8,30.12,East,96,0.0,0.0,88,0.18,,SCT029,0.21,0.00,VWS V14.01,2013-06-24 02:28:00,
2013-06-23 22:30:00,77.6,73.8,30.12,ESE,109,0.0,0.0,88,0.18,,CLR,0.21,0.00,VWS V14.01,2013-06-24 02:30:00,
2013-06-23 22:33:00,77.7,74.2,30.12,SSE,157,0.0,1.0,89,0.18,,SCT029,0.21,0.00,VWS V14.01,2013-06-24 02:33:00,
2013-06-23 22:35:00,77.6,74.1,30.12,SSE,158,0.0,0.0,89,0.18,,CLR,0.21,0.00,VWS V14.01,2013-06-24 02:35:00,
2013-06-23 22:38:00,77.7,74.2,30.12,SSE,158,0.0,0.0,89,0.18,,OVC050,0.21,0.00,VWS V14.01,2013-06-24 02:38:00,
2013-06-23 22:40:00,77.8,74.3,30.12,SE,128,0.0,0.0,89,0.18,,CLR,0.21,0.00,VWS V14.01,2013-06-24 02:40:00,
2013-06-23 22:43:00,77.9,74.7,30.12,ESE,111,2.0,3.0,90,0.02,,OVC050,0.21,0.00,VWS V14.01,2013-06-24 02:43:00,
2013-06-23 22:45:00,78.0,74.8,30.12,East,84,2.0,2.0,90,0.02,,CLR,0.21,0.00,VWS V14.01,2013-06-24 02:45:00,
2013-06-23 22:48:00,78.0,74.5,30.12,ENE,66,0.0,1.0,89,0.01,,OVC050,0.21,0.00,VWS V14.01,2013-06-24 02:48:00,
2013-06-23 22:50:00,78.0,74.5,30.12,East,89,3.0,3.0,89,0.01,,CLR,0.21,0.00,VWS V14.01,2013-06-24 02:50:00,
2013-06-23 22:53:00,78.0,74.5,30.12,East,84,1.0,3.0,89,0.01,,BKN048,0.21,0.00,VWS V14.01,2013-06-24 02:53:00,
2013-06-23 22:55:00,78.0,74.5,30.12,East,84,2.0,3.0,89,0.01,,CLR,0.21,0.00,VWS V14.01,2013-06-24 02:55:00,
2013-06-23 22:58:00,78.2,74.4,30.12,East,97,3.0,5.0,88,0.00,,BKN048,0.21,0.00,VWS V14.01,2013-06-24 02:58:00,
2013-06-23 23:00:00,78.2,74.7,30.12,East,90,1.0,5.0,89,0.00,,CLR,0.21,0.00,VWS V14.01,2013-06-24 03:00:00,
2013-06-23 23:03:00,78.4,74.6,30.13,ESE,110,2.0,3.0,88,0.00,,BKN048,0.21,0.00,VWS V14.01,2013-06-24 03:03:00,
2013-06-23 23:05:00,78.4,74.6,30.13,East,88,1.0,3.0,88,0.00,,CLR,0.21,0.00,VWS V14.01,2013-06-24 03:05:00,
2013-06-23 23:08:00,78.6,74.8,30.13,ENE,68,2.0,3.0,88,0.00,,BKN048,0.21,0.00,VWS V14.01,2013-06-24 03:08:00,
2013-06-23 23:10:00,78.6,74.8,30.13,East,91,2.0,3.0,88,0.00,,CLR,0.21,0.00,VWS V14.01,2013-06-24 03:10:00,
2013-06-23 23:13:00,78.6,74.4,30.13,ENE,64,1.0,5.0,87,0.00,,BKN048,0.21,0.00,VWS V14.01,2013-06-24 03:13:00,
2013-06-23 23:15:00,78.7,74.5,30.13,ESE,121,4.0,5.0,87,0.00,,CLR,0.21,0.00,VWS V14.01,2013-06-24 03:15:00,
2013-06-23 23:18:00,78.7,74.5,30.13,East,87,2.0,5.0,87,0.00,,BKN048,0.21,0.00,VWS V14.01,2013-06-24 03:18:00,
2013-06-23 23:20:00,78.8,74.6,30.13,East,94,1.0,3.0,87,0.00,,CLR,0.21,0.00,VWS V14.01,2013-06-24 03:20:00,
2013-06-23 23:23:00,78.9,74.7,30.13,ESE,111,2.0,3.0,87,0.00,,BKN048,0.21,0.00,VWS V14.01,2013-06-24 03:23:00,
2013-06-23 23:25:00,78.9,74.7,30.13,ESE,109,0.0,3.0,87,0.00,,CLR,0.21,0.00,VWS V14.01,2013-06-24 03:25:00,
2013-06-23 23:28:00,79.1,74.9,30.13,ESE,107,2.0,5.0,87,0.00,,BKN048,0.21,0.00,VWS V14.01,2013-06-24 03:28:00,
2013-06-23 23:30:00,79.1,74.9,30.14,ESE,122,2.0,3.0,87,0.00,,CLR,0.21,0.00,VWS V14.01,2013-06-24 03:30:00,
2013-06-23 23:33:00,79.2,75.0,30.14,SE,134,0.0,4.0,87,0.00,,BKN048,0.21,0.00,VWS V14.01,2013-06-24 03:33:00,
2013-06-23 23:35:00,79.2,75.0,30.14,SE,133,0.0,2.0,87,0.00,,CLR,0.21,0.00,VWS V14.01,2013-06-24 03:35:00,
2013-06-23 23:38:00,79.3,74.8,30.14,ENE,66,1.0,2.0,86,0.00,,BKN100,0.21,0.00,VWS V14.01,2013-06-24 03:38:00,
2013-06-23 23:40:00,79.3,74.8,30.14,East,87,3.0,3.0,86,0.00,,CLR,0.21,0.00,VWS V14.01,2013-06-24 03:40:00,
2013-06-23 23:43:00,79.3,74.8,30.13,East,87,1.0,3.0,86,0.00,,BKN100,0.21,0.00,VWS V14.01,2013-06-24 03:43:00,
2013-06-23 23:45:00,79.3,74.8,30.13,NE,40,1.0,3.0,86,0.00,,CLR,0.21,0.00,VWS V14.01,2013-06-24 03:45:00,
2013-06-23 23:48:00,79.3,74.8,30.13,ESE,120,2.0,4.0,86,0.00,,BKN100,0.21,0.00,VWS V14.01,2013-06-24 03:48:00,
2013-06-23 23:50:00,79.3,74.8,30.13,ENE,66,2.0,3.0,86,0.00,,CLR,0.21,0.00,VWS V14.01,2013-06-24 03:50:00,
2013-06-23 23:53:00,79.3,74.4,30.14,ENE,65,1.0,2.0,85,0.00,,BKN100,0.21,0.00,VWS V14.01,2013-06-24 03:53:00,
2013-06-23 23:55:00,79.3,74.4,30.14,East,86,2.0,2.0,85,0.00,,CLR,0.21,0.00,VWS V14.01,2013-06-24 03:55:00,
2013-06-23 23:58:00,79.4,74.5,30.14,ENE,69,1.0,2.0,85,0.00,,BKN100,0.21,0.00,VWS V14.01,2013-06-24 03:58:00,